createdAt,value
2018-03-29T00:01:31.866Z,96295.13
2018-03-29T00:04:01.247Z,96292.24
2018-03-29T00:06:30.562Z,96289.59
2018-03-29T00:09:00.042Z,96287.30
2018-03-29T00:11:31.012Z,96293.27
2018-03-29T00:14:02.663Z,96287.10
2018-03-29T00:16:34.113Z,96286.67
2018-03-29T00:19:04.641Z,96279.62
2018-03-29T00:21:34.705Z,96282.83
2018-03-29T00:24:06.830Z,96281.13
2018-03-29T00:26:36.821Z,96274.88
2018-03-29T00:29:07.150Z,96281.40
2018-03-29T00:31:38.382Z,96281.41
2018-03-29T00:34:11.326Z,96271.44
2018-03-29T00:36:45.006Z,96271.94
2018-03-29T00:39:21.426Z,96265.84
2018-03-29T00:41:53.884Z,96271.72
2018-03-29T00:44:23.935Z,96262.69
2018-03-29T00:47:00.208Z,96268.38
2018-03-29T00:49:37.868Z,96261.80
2018-03-29T00:52:09.757Z,96258.54
2018-03-29T00:54:45.538Z,96259.58
2018-03-29T00:57:16.826Z,96254.27
2018-03-29T00:59:52.227Z,96252.10
2018-03-29T01:02:23.712Z,96245.00
2018-03-29T01:04:55.493Z,96239.85
2018-03-29T01:07:26.752Z,96235.75
2018-03-29T01:09:59.021Z,96234.27
2018-03-29T01:12:33.782Z,96235.08
2018-03-29T01:15:04.736Z,96231.55
2018-03-29T01:17:34.887Z,96231.00
2018-03-29T01:20:05.139Z,96231.19
2018-03-29T01:22:41.755Z,96232.61
2018-03-29T01:25:12.007Z,96227.23
2018-03-29T01:27:44.837Z,96220.80
2018-03-29T01:30:15.714Z,96228.12
2018-03-29T01:32:46.465Z,96236.20
2018-03-29T01:35:23.239Z,96230.19
2018-03-29T01:37:54.420Z,96236.99
2018-03-29T01:40:26.804Z,96242.49
2018-03-29T01:42:57.963Z,96236.03
2018-03-29T01:45:29.057Z,96228.06
2018-03-29T01:47:59.540Z,96233.20
2018-03-29T01:50:30.883Z,96238.39
2018-03-29T01:53:04.617Z,96230.17
2018-03-29T01:55:35.801Z,96233.50
2018-03-29T01:58:07.889Z,96233.50
2018-03-29T02:00:39.238Z,96229.58
2018-03-29T02:03:09.442Z,96233.65
2018-03-29T02:05:42.605Z,96229.94
2018-03-29T02:08:14.215Z,96230.48
2018-03-29T02:10:46.869Z,96231.53
2018-03-29T02:13:19.964Z,96227.92
2018-03-29T02:15:50.814Z,96235.72
2018-03-29T02:18:21.734Z,96240.62
2018-03-29T02:20:54.508Z,96232.55
2018-03-29T02:23:26.095Z,96238.16
2018-03-29T02:25:55.694Z,96224.72
2018-03-29T02:28:31.757Z,96231.81
2018-03-29T02:31:08.375Z,96224.44
2018-03-29T02:33:38.661Z,96230.53
2018-03-29T02:36:13.590Z,96234.83
2018-03-29T02:38:43.821Z,96240.33
2018-03-29T02:41:13.955Z,96249.95
2018-03-29T02:43:45.187Z,96245.98
2018-03-29T02:46:16.972Z,96247.88
2018-03-29T02:48:46.904Z,96253.02
2018-03-29T02:51:16.636Z,96254.84
2018-03-29T02:53:47.652Z,96254.09
2018-03-29T02:56:18.761Z,96247.33
2018-03-29T02:58:51.204Z,96245.45
2018-03-29T03:01:24.075Z,96254.50
2018-03-29T03:03:54.524Z,96259.78
2018-03-29T03:06:24.529Z,96263.20
2018-03-29T03:08:57.613Z,96263.76
2018-03-29T03:11:27.600Z,96265.95
2018-03-29T03:13:58.779Z,96275.64
2018-03-29T03:16:29.440Z,96277.80
2018-03-29T03:19:00.351Z,96284.54
2018-03-29T03:21:30.396Z,96286.98
2018-03-29T03:24:03.371Z,96288.45
2018-03-29T03:26:35.275Z,96279.79
2018-03-29T03:29:06.770Z,96287.27
2018-03-29T03:31:38.591Z,96290.47
2018-03-29T03:34:08.765Z,96291.78
2018-03-29T03:36:39.882Z,96300.84
2018-03-29T03:39:10.780Z,96302.25
2018-03-29T03:41:42.284Z,96300.89
2018-03-29T03:44:14.196Z,96298.65
2018-03-29T03:46:46.834Z,96303.44
2018-03-29T03:49:17.896Z,96312.37
2018-03-29T03:51:50.658Z,96320.16
2018-03-29T03:54:21.743Z,96331.41
2018-03-29T03:56:51.887Z,96326.34
2018-03-29T03:59:23.010Z,96331.83
2018-03-29T04:01:55.129Z,96327.77
2018-03-29T04:04:26.243Z,96329.78
2018-03-29T04:06:58.840Z,96334.27
2018-03-29T04:09:43.698Z,96335.66
2018-03-29T04:12:17.563Z,96343.88
2018-03-29T04:14:49.962Z,96342.89
2018-03-29T04:17:20.504Z,96347.13
2018-03-29T04:19:53.314Z,96339.25
2018-03-29T04:22:23.832Z,96340.68
2018-03-29T04:24:54.836Z,96346.05
2018-03-29T04:27:26.778Z,96344.87
2018-03-29T04:29:58.214Z,96350.58
2018-03-29T04:32:28.627Z,96351.73
2018-03-29T04:35:00.405Z,96360.52
2018-03-29T04:37:30.684Z,96356.92
2018-03-29T04:40:03.209Z,96360.89
2018-03-29T04:42:34.018Z,96355.00
2018-03-29T04:45:03.962Z,96359.58
2018-03-29T04:47:34.404Z,96366.29
2018-03-29T04:50:05.366Z,96368.08
2018-03-29T04:52:38.343Z,96376.77
2018-03-29T04:55:12.562Z,96376.53
2018-03-29T04:57:47.297Z,96373.27
2018-03-29T05:00:17.448Z,96372.86
2018-03-29T05:02:46.776Z,96379.95
2018-03-29T05:05:16.124Z,96385.12
2018-03-29T05:07:45.791Z,96386.40
2018-03-29T05:10:15.115Z,96381.30
2018-03-29T05:12:47.007Z,96385.33
2018-03-29T05:15:18.512Z,96385.50
2018-03-29T05:17:55.555Z,96396.59
2018-03-29T05:20:31.315Z,96391.30
2018-03-29T05:23:02.855Z,96401.70
2018-03-29T05:25:36.169Z,96405.83
2018-03-29T05:28:09.900Z,96398.48
2018-03-29T05:30:40.781Z,96393.24
2018-03-29T05:33:11.872Z,96397.06
2018-03-29T05:35:43.167Z,96407.83
2018-03-29T05:38:13.163Z,96406.37
2018-03-29T05:40:43.247Z,96399.47
2018-03-29T05:43:15.070Z,96413.33
2018-03-29T05:46:07.312Z,96413.40
